Sunbury, PA

11:19 PM EDT on July 07, 2015 (GMT -0400)
KPASUNBU2 | | Change Station
CLOSE
Current Station
Personal Weather Station
Location: Sunbury, PA
Elevation: 508 ft
Nearby Weather Stations

Elev 508 ft 40.86 °N, 76.78 °W | Updated 5 seconds ago

Clear
Clear
79.9 °F
Feels Like 80 °F
N
2.2
Wind Variable Wind from NNW
Gusts 8.3 mph

Today
High -- | Low -- °F
--% Chance of Precip.
Yesterday
High -- | Low -- °F
Precip. -- in
5:42 AM 8:41 PM
Waning Gibbous, 58% visible
Pressure 29.96 in
Visibility 7.0 miles
Clouds Few 6000 ft
Heat Index 80 °F
Dew Point 52 °F
Humidity 38%
Rainfall 0.00 in
Snow Depth Not available.
UV 0 out of 12
Pollen 2.00 out of 12
Air Quality Not available.
Flu Activity Not available.
METAR KSEG 080253Z AUTO VRB03KT 7SM FEW060 26/21 A2997 RMK AO2 SLP144 T02560206 51008

More Conditions Fewer Conditions

Pressure 29.96 in
Visibility 7.0 miles
Clouds Few 6000 ft
Heat Index 80 °F
Dew Point 52 °F
Humidity 38%
Rainfall 0.00 in
Snow Depth Not available.
UV 0 out of 12
Pollen 2.00 out of 12
Air Quality Not available.
Flu Activity Not available.
METAR KSEG 080253Z AUTO VRB03KT 7SM FEW060 26/21 A2997 RMK AO2 SLP144 T02560206 51008

More Conditions Fewer Conditions

10-Day Weather Forecast

×

Almanac

Astronomy

Jul. 07, 2015 Rise Set
Actual Time
Civil Twilight
Nautical Twilight
Astronomical Twilight
Moon
Length of Visible Light
Length of Day
Tomorrow will be .
, % of the Moon is Illuminated

Today's Extremes

State Highs State Lows

Community

WunderPhotos

Upload Photos

1,836,025 photos uploaded!

WunderBlogs® & News

Nearby

Air Quality

  Air Quality AQ Index Pollutant
Not available.

Snow Depth

Station Depth Elevation

Earthquake Activity

City Distance Mag. Time & Date
Minimum magnitude displayed is 2.5.

Coastal Water Temperatures

Place Temperature

Stations

Nearby Weather Stations

Station Location Temp. Windchill Dew Point Humidity Wind Precip. Elev Updated Type